createdAt,value
2023-03-02T00:02:22.704Z,123.70
2023-03-02T00:04:57.359Z,137.38
2023-03-02T00:07:33.418Z,127.03
2023-03-02T00:10:05.704Z,144.68
2023-03-02T00:12:37.345Z,137.73
2023-03-02T00:15:10.501Z,133.82
2023-03-02T00:17:41.067Z,147.25
2023-03-02T00:20:14.073Z,130.25
2023-03-02T00:22:48.383Z,132.60
2023-03-02T00:25:20.262Z,129.82
2023-03-02T00:27:51.140Z,132.88
2023-03-02T00:30:22.455Z,115.30
2023-03-02T00:32:53.525Z,123.95
2023-03-02T00:35:26.152Z,110.97
2023-03-02T00:37:58.221Z,117.20
2023-03-02T00:40:29.230Z,110.60
2023-03-02T00:42:59.981Z,113.93
2023-03-02T00:45:31.295Z,134.38
2023-03-02T00:48:02.280Z,133.30
2023-03-02T00:50:33.536Z,122.07
2023-03-02T00:53:07.140Z,134.98
2023-03-02T00:55:39.042Z,127.93
2023-03-02T00:58:10.057Z,135.23
2023-03-02T01:00:41.262Z,126.07
2023-03-02T01:03:12.486Z,137.13
2023-03-02T01:05:43.754Z,136.32
2023-03-02T01:08:16.283Z,143.32
2023-03-02T01:10:47.370Z,146.85
2023-03-02T01:13:18.315Z,159.13
2023-03-02T01:15:49.348Z,151.40
2023-03-02T01:18:20.152Z,164.52
2023-03-02T01:20:51.150Z,173.45
2023-03-02T01:23:23.343Z,164.18
2023-03-02T01:25:54.493Z,180.73
2023-03-02T01:28:25.231Z,167.82
2023-03-02T01:30:56.376Z,169.63
2023-03-02T01:33:26.966Z,167.90
2023-03-02T01:35:58.282Z,179.60
2023-03-02T01:38:30.601Z,169.98
2023-03-02T01:41:01.720Z,170.65
2023-03-02T01:43:32.582Z,166.70
2023-03-02T01:46:06.096Z,183.35
2023-03-02T01:48:50.987Z,173.38
2023-03-02T01:51:33.075Z,155.17
2023-03-02T01:54:10.923Z,150.98
2023-03-02T01:56:43.627Z,147.73
2023-03-02T01:59:19.795Z,143.73
2023-03-02T02:01:56.791Z,149.50
2023-03-02T02:04:30.428Z,139.15
2023-03-02T02:07:04.956Z,136.23
2023-03-02T02:09:41.761Z,140.13
2023-03-02T02:12:17.813Z,150.95
2023-03-02T02:14:49.995Z,153.63
2023-03-02T02:17:22.496Z,136.38
2023-03-02T02:20:09.328Z,136.30
2023-03-02T02:22:57.749Z,116.20
2023-03-02T02:25:46.675Z,114.55
2023-03-02T02:28:24.378Z,132.57
2023-03-02T02:31:07.215Z,132.00
2023-03-02T02:33:40.075Z,131.18
2023-03-02T02:36:18.537Z,141.63
2023-03-02T02:38:54.315Z,134.05
2023-03-02T02:41:31.019Z,142.82
2023-03-02T02:44:04.277Z,161.57
2023-03-02T02:46:36.642Z,169.82
2023-03-02T02:49:25.303Z,158.90
2023-03-02T02:51:56.190Z,165.88
2023-03-02T02:54:28.062Z,167.00
2023-03-02T02:57:00.847Z,147.48
2023-03-02T02:59:38.102Z,158.77
2023-03-02T03:02:12.499Z,149.65
2023-03-02T03:04:43.765Z,151.15
2023-03-02T03:07:21.055Z,145.43
2023-03-02T03:09:59.839Z,141.00
2023-03-02T03:12:33.861Z,140.40
2023-03-02T03:15:10.036Z,157.02
2023-03-02T03:17:41.009Z,149.30
2023-03-02T03:20:16.996Z,158.43
2023-03-02T03:22:48.530Z,165.02
2023-03-02T03:25:19.834Z,154.85
2023-03-02T03:27:51.767Z,151.07
2023-03-02T03:30:25.568Z,155.23
2023-03-02T03:32:57.064Z,153.38
2023-03-02T03:35:28.149Z,155.27
2023-03-02T03:37:59.452Z,149.80
2023-03-02T03:40:34.343Z,162.35
2023-03-02T03:43:06.995Z,157.02
2023-03-02T03:45:39.585Z,173.18
2023-03-02T03:48:11.480Z,171.40
2023-03-02T03:50:43.209Z,169.82
2023-03-02T03:53:14.019Z,162.23
2023-03-02T03:55:45.204Z,149.65
2023-03-02T03:58:16.089Z,142.77
2023-03-02T04:00:48.829Z,130.93
2023-03-02T04:03:20.662Z,135.45
2023-03-02T04:05:51.934Z,136.40
2023-03-02T04:08:22.945Z,133.18
2023-03-02T04:10:54.410Z,127.55
2023-03-02T04:13:24.958Z,126.07
2023-03-02T04:15:58.578Z,133.98
2023-03-02T04:18:29.666Z,129.52
2023-03-02T04:21:01.691Z,132.77
2023-03-02T04:23:32.888Z,135.95
2023-03-02T04:26:05.397Z,130.02
2023-03-02T04:28:36.972Z,131.47
2023-03-02T04:31:09.603Z,162.88
2023-03-02T04:33:40.274Z,150.77
2023-03-02T04:36:12.225Z,135.60
2023-03-02T04:38:43.108Z,129.55
2023-03-02T04:41:14.081Z,131.10
2023-03-02T04:43:45.292Z,133.85
2023-03-02T04:46:24.157Z,132.10
2023-03-02T04:48:55.653Z,137.70
2023-03-02T04:51:35.110Z,155.18
2023-03-02T04:56:39.024Z,118.15
2023-03-02T04:59:09.764Z,138.35
2023-03-02T05:01:42.667Z,148.50
2023-03-02T05:04:13.473Z,147.17
2023-03-02T05:06:44.989Z,141.77
2023-03-02T05:09:16.047Z,174.15
2023-03-02T05:11:47.349Z,162.35
2023-03-02T05:14:18.062Z,165.95
2023-03-02T05:16:51.612Z,163.77
2023-03-02T05:19:22.806Z,148.50
2023-03-02T05:21:53.933Z,155.35
2023-03-02T05:24:24.761Z,149.68
2023-03-02T05:26:55.940Z,149.57
2023-03-02T05:29:27.061Z,154.15
2023-03-02T05:31:59.777Z,160.85
2023-03-02T05:34:30.498Z,148.27
2023-03-02T05:37:01.618Z,147.60
2023-03-02T05:39:32.126Z,163.77
2023-03-02T05:42:03.307Z,158.18
2023-03-02T05:44:34.025Z,166.60
2023-03-02T05:47:07.207Z,169.80
2023-03-02T05:49:38.011Z,176.13
2023-03-02T05:52:09.172Z,181.73
2023-03-02T05:54:39.893Z,202.95
2023-03-02T05:57:11.067Z,212.38
2023-03-02T05:59:41.846Z,220.77
2023-03-02T06:02:14.621Z,213.93
2023-03-02T06:04:45.608Z,213.70
2023-03-02T06:07:16.494Z,185.10
2023-03-02T06:09:47.312Z,157.23
2023-03-02T06:12:19.338Z,179.98
2023-03-02T06:14:49.986Z,187.10
2023-03-02T06:17:22.622Z,179.93
2023-03-02T06:19:53.527Z,172.38
2023-03-02T06:22:24.742Z,166.75
2023-03-02T06:24:56.366Z,149.32
2023-03-02T06:27:27.327Z,156.63
2023-03-02T06:29:58.068Z,168.07
2023-03-02T06:32:34.330Z,160.25
2023-03-02T06:35:05.973Z,158.18
2023-03-02T06:37:37.320Z,144.82
2023-03-02T06:40:11.662Z,145.50
2023-03-02T06:42:44.328Z,130.27
2023-03-02T06:45:15.068Z,133.52
2023-03-02T06:47:47.924Z,123.25
2023-03-02T06:50:18.973Z,131.70
2023-03-02T06:52:50.200Z,139.27
2023-03-02T06:55:21.156Z,142.40
2023-03-02T06:57:52.760Z,145.73
2023-03-02T07:00:28.466Z,130.32
2023-03-02T07:03:01.067Z,135.63
2023-03-02T07:05:32.462Z,144.00
2023-03-02T07:08:03.456Z,125.40
2023-03-02T07:10:34.577Z,115.35
2023-03-02T07:13:06.423Z,121.70
2023-03-02T07:15:41.503Z,127.82
2023-03-02T07:18:13.903Z,112.43
2023-03-02T07:20:44.546Z,105.72
2023-03-02T07:23:15.602Z,102.53
2023-03-02T07:25:46.314Z,108.80
2023-03-02T07:28:17.202Z,99.25
2023-03-02T07:30:47.865Z,96.63
2023-03-02T07:33:20.440Z,120.38
2023-03-02T07:35:51.230Z,123.25
2023-03-02T07:38:22.337Z,125.28
2023-03-02T07:40:53.577Z,140.75
2023-03-02T07:43:26.672Z,132.43
2023-03-02T07:46:00.290Z,110.30
2023-03-02T07:48:32.802Z,127.45
2023-03-02T07:51:05.827Z,131.82
2023-03-02T07:56:12.039Z,108.30
2023-03-02T07:58:42.956Z,125.60
2023-03-02T08:01:13.929Z,111.07
2023-03-02T08:03:46.362Z,101.60
2023-03-02T08:06:17.095Z,100.68
2023-03-02T08:08:48.275Z,102.07
2023-03-02T08:11:20.203Z,87.88
2023-03-02T08:13:51.499Z,93.35
2023-03-02T08:16:22.435Z,90.95
2023-03-02T08:18:56.931Z,90.32
2023-03-02T08:21:30.493Z,98.30
2023-03-02T08:24:01.685Z,98.18
2023-03-02T08:26:32.941Z,95.00
2023-03-02T08:29:04.145Z,95.93
2023-03-02T08:31:35.753Z,93.20
2023-03-02T08:34:08.341Z,92.47
2023-03-02T08:36:40.254Z,85.32
2023-03-02T08:39:11.158Z,80.13
2023-03-02T08:41:41.696Z,72.25
2023-03-02T08:44:12.716Z,45.70
2023-03-02T08:46:43.661Z,52.22
2023-03-02T08:49:16.218Z,68.90
2023-03-02T08:51:49.117Z,51.28
2023-03-02T08:54:20.522Z,53.53
2023-03-02T08:56:51.652Z,68.53
2023-03-02T08:59:22.909Z,71.07
2023-03-02T09:01:53.716Z,69.63
2023-03-02T09:04:26.373Z,70.25
2023-03-02T09:06:57.038Z,67.60
2023-03-02T09:09:28.177Z,63.50
2023-03-02T09:11:58.852Z,63.30
2023-03-02T09:14:29.853Z,52.47
2023-03-02T09:17:00.615Z,53.85
2023-03-02T09:19:43.234Z,55.15
2023-03-02T09:22:15.492Z,55.47
2023-03-02T09:24:46.773Z,55.55
2023-03-02T09:27:17.575Z,55.03
2023-03-02T09:29:48.792Z,47.90
2023-03-02T09:32:19.717Z,47.00
2023-03-02T09:34:52.757Z,51.75
2023-03-02T09:37:23.681Z,48.33
2023-03-02T09:39:54.851Z,46.28
2023-03-02T09:42:47.391Z,42.85
2023-03-02T09:45:32.943Z,48.10
2023-03-02T09:48:17.113Z,42.92
2023-03-02T09:51:02.698Z,38.72
2023-03-02T09:53:57.392Z,39.28
2023-03-02T09:56:29.267Z,41.75
2023-03-02T09:59:07.412Z,35.42
2023-03-02T10:01:48.582Z,45.17
2023-03-02T10:04:27.128Z,41.47
2023-03-02T10:07:12.037Z,37.90
2023-03-02T10:09:44.048Z,32.83
2023-03-02T10:12:37.907Z,35.17
2023-03-02T10:15:15.891Z,35.65
2023-03-02T10:18:01.129Z,39.95
2023-03-02T10:20:39.348Z,36.65
2023-03-02T10:23:37.726Z,32.13
2023-03-02T10:26:35.916Z,37.38
2023-03-02T10:29:29.314Z,38.35
2023-03-02T10:32:07.653Z,35.28
2023-03-02T10:34:40.783Z,33.90
2023-03-02T10:37:17.284Z,34.42
2023-03-02T10:39:50.254Z,31.88
2023-03-02T10:42:27.497Z,29.63
2023-03-02T10:45:07.823Z,34.03
2023-03-02T10:47:38.437Z,31.30
2023-03-02T10:50:24.477Z,37.35
2023-03-02T10:53:00.148Z,41.70
2023-03-02T10:55:34.250Z,34.83
2023-03-02T10:58:09.268Z,36.47
2023-03-02T11:00:40.328Z,32.95
2023-03-02T11:03:24.207Z,33.13
2023-03-02T11:05:55.115Z,37.90
2023-03-02T11:08:28.285Z,39.80
2023-03-02T11:11:03.351Z,36.97
2023-03-02T11:13:37.024Z,35.10
2023-03-02T11:16:28.590Z,33.97
2023-03-02T11:19:03.214Z,41.08
2023-03-02T11:21:39.891Z,42.58
2023-03-02T11:24:15.364Z,39.45
2023-03-02T11:26:53.651Z,39.17
2023-03-02T11:29:33.879Z,35.13
2023-03-02T11:32:14.883Z,39.83
2023-03-02T11:34:51.489Z,34.85
2023-03-02T11:37:25.768Z,33.13
2023-03-02T11:40:15.728Z,39.00
2023-03-02T11:42:49.064Z,42.70
2023-03-02T11:45:24.268Z,35.47
2023-03-02T11:48:03.704Z,40.70
2023-03-02T11:50:42.808Z,36.53
2023-03-02T11:53:19.401Z,32.47
2023-03-02T11:55:51.358Z,36.42
2023-03-02T11:58:27.332Z,36.95
2023-03-02T12:00:58.751Z,30.30
2023-03-02T12:03:43.077Z,33.50
2023-03-02T12:06:35.777Z,28.75
2023-03-02T12:09:33.324Z,29.47
2023-03-02T12:12:44.623Z,31.70
2023-03-02T12:15:41.231Z,32.65
2023-03-02T12:18:49.725Z,29.27
2023-03-02T12:21:25.789Z,30.20
2023-03-02T12:24:06.421Z,27.88
2023-03-02T12:26:39.261Z,26.55
2023-03-02T12:29:25.682Z,28.20
2023-03-02T12:31:58.866Z,27.05
2023-03-02T12:34:41.037Z,29.27
2023-03-02T12:37:24.949Z,27.00
2023-03-02T12:40:41.257Z,27.55
2023-03-02T12:43:32.684Z,32.03
2023-03-02T12:46:31.973Z,31.58
2023-03-02T12:49:41.262Z,31.83
2023-03-02T12:52:27.833Z,31.48
2023-03-02T12:55:05.338Z,32.28
2023-03-02T12:57:40.320Z,26.92
2023-03-02T13:00:19.540Z,34.72
2023-03-02T13:02:53.480Z,37.13
2023-03-02T13:05:29.140Z,33.70
2023-03-02T13:08:04.593Z,29.70
2023-03-02T13:10:40.005Z,31.13
2023-03-02T13:13:19.674Z,31.95
2023-03-02T13:15:53.917Z,30.77
2023-03-02T13:18:27.863Z,30.58
2023-03-02T13:21:01.125Z,30.40
2023-03-02T13:23:34.684Z,31.65
2023-03-02T13:26:07.241Z,31.73
2023-03-02T13:28:41.059Z,38.47
2023-03-02T13:31:23.129Z,33.80
2023-03-02T13:33:55.562Z,140.35
2023-03-02T13:36:32.663Z,28.67
2023-03-02T13:39:07.154Z,34.13
2023-03-02T13:41:40.789Z,32.13
2023-03-02T13:44:20.662Z,34.20
2023-03-02T13:46:51.684Z,132.80
2023-03-02T13:49:33.713Z,101.63
2023-03-02T13:52:16.043Z,95.32
2023-03-02T13:54:48.154Z,139.45
2023-03-02T13:57:26.435Z,26.90
2023-03-02T13:59:57.461Z,58.35
2023-03-02T14:02:30.991Z,44.45
2023-03-02T14:05:01.733Z,126.50
2023-03-02T14:07:34.222Z,38.90
2023-03-02T14:10:05.148Z,44.78
2023-03-02T14:12:36.171Z,37.30
2023-03-02T14:15:08.904Z,20.73
2023-03-02T14:17:41.162Z,35.08
2023-03-02T14:20:15.846Z,29.88
2023-03-02T14:22:49.051Z,29.90
2023-03-02T14:25:20.653Z,21.98
2023-03-02T14:27:51.765Z,22.80
2023-03-02T14:30:23.911Z,22.05
2023-03-02T14:32:55.127Z,21.00
2023-03-02T14:35:27.425Z,19.88
2023-03-02T14:37:59.830Z,33.42
2023-03-02T14:40:30.640Z,26.65
2023-03-02T14:43:01.876Z,34.65
2023-03-02T14:45:32.652Z,23.83
2023-03-02T14:48:03.805Z,23.25
2023-03-02T14:50:39.268Z,21.70
2023-03-02T14:53:18.856Z,23.77
2023-03-02T14:55:50.042Z,32.92
2023-03-02T14:58:29.220Z,36.22
2023-03-02T15:01:00.462Z,40.75
2023-03-02T15:03:31.730Z,36.03
2023-03-02T15:06:02.513Z,32.65
2023-03-02T15:08:35.301Z,97.80
2023-03-02T15:11:06.495Z,63.47
2023-03-02T15:13:37.556Z,59.65
2023-03-02T15:16:12.180Z,64.18
2023-03-02T15:18:45.849Z,61.05
2023-03-02T15:21:22.078Z,64.20
2023-03-02T15:23:54.613Z,68.97
2023-03-02T15:26:25.539Z,71.45
2023-03-02T15:28:57.145Z,75.22
2023-03-02T15:31:29.356Z,71.65
2023-03-02T15:34:00.846Z,82.03
2023-03-02T15:36:31.826Z,74.45
2023-03-02T15:39:05.125Z,71.68
2023-03-02T15:44:08.339Z,71.65
2023-03-02T15:46:39.342Z,71.72
2023-03-02T15:49:10.910Z,77.38
2023-03-02T15:51:41.708Z,75.47
2023-03-02T15:54:14.228Z,85.63
2023-03-02T15:56:45.676Z,81.38
2023-03-02T15:59:17.223Z,84.63
2023-03-02T16:01:48.117Z,85.97
2023-03-02T16:04:19.615Z,92.88
2023-03-02T16:06:50.295Z,100.07
2023-03-02T16:09:23.186Z,96.97
2023-03-02T16:11:54.324Z,89.07
2023-03-02T16:14:25.796Z,90.72
2023-03-02T16:16:56.638Z,90.75
2023-03-02T16:19:27.995Z,92.13
2023-03-02T16:21:58.741Z,98.82
2023-03-02T16:24:31.275Z,100.93
2023-03-02T16:27:02.044Z,96.85
2023-03-02T16:29:33.123Z,98.93
2023-03-02T16:32:03.815Z,106.63
2023-03-02T16:34:35.014Z,105.85
2023-03-02T16:37:05.693Z,101.78
2023-03-02T16:39:38.360Z,105.05
2023-03-02T16:42:09.247Z,101.03
2023-03-02T16:44:40.504Z,104.10
2023-03-02T16:47:11.611Z,106.43
2023-03-02T16:49:42.888Z,106.80
2023-03-02T16:52:13.590Z,122.15
2023-03-02T16:54:45.970Z,116.05
2023-03-02T16:57:16.910Z,112.35
2023-03-02T16:59:48.044Z,113.80
2023-03-02T17:02:18.786Z,125.30
2023-03-02T17:04:49.932Z,113.32
2023-03-02T17:07:21.158Z,121.70
2023-03-02T17:09:53.759Z,120.30
2023-03-02T17:12:24.517Z,125.78
2023-03-02T17:14:55.530Z,123.53
2023-03-02T17:17:26.377Z,103.65
2023-03-02T17:19:58.052Z,120.28
2023-03-02T17:22:29.032Z,115.95
2023-03-02T17:25:03.539Z,126.85
2023-03-02T17:27:35.551Z,122.57
2023-03-02T17:30:08.360Z,127.78
2023-03-02T17:32:39.023Z,120.60
2023-03-02T17:35:14.011Z,125.88
2023-03-02T17:37:45.099Z,129.15
2023-03-02T17:40:18.799Z,131.70
2023-03-02T17:42:49.554Z,126.45
2023-03-02T17:45:22.765Z,134.52
2023-03-02T17:47:54.195Z,132.20
2023-03-02T17:50:26.960Z,131.20
2023-03-02T17:52:57.616Z,130.82
2023-03-02T17:55:30.488Z,132.15
2023-03-02T17:58:01.078Z,139.85
2023-03-02T18:00:32.463Z,143.70
2023-03-02T18:03:03.212Z,139.70
2023-03-02T18:05:34.342Z,143.05
2023-03-02T18:08:05.362Z,140.02
2023-03-02T18:10:37.908Z,141.93
2023-03-02T18:13:08.598Z,143.05
2023-03-02T18:15:39.707Z,140.73
2023-03-02T18:18:10.471Z,151.30
2023-03-02T18:20:41.743Z,154.52
2023-03-02T18:23:13.311Z,154.50
2023-03-02T18:25:45.910Z,173.00
2023-03-02T18:28:16.860Z,168.75
2023-03-02T18:30:48.111Z,140.60
2023-03-02T18:33:18.863Z,146.63
2023-03-02T18:35:50.380Z,153.15
2023-03-02T18:38:21.306Z,152.18
2023-03-02T18:40:54.864Z,144.50
2023-03-02T18:43:25.624Z,142.35
2023-03-02T18:45:57.784Z,153.68
2023-03-02T18:48:28.574Z,144.00
2023-03-02T18:50:59.930Z,153.10
2023-03-02T18:53:30.775Z,154.93
2023-03-02T18:56:03.302Z,151.60
2023-03-02T18:58:34.585Z,152.35
2023-03-02T19:01:06.436Z,154.40
2023-03-02T19:03:38.762Z,149.90
2023-03-02T19:06:10.767Z,148.57
2023-03-02T19:08:41.547Z,144.02
2023-03-02T19:11:14.140Z,148.00
2023-03-02T19:13:45.088Z,145.20
2023-03-02T19:16:18.348Z,151.40
2023-03-02T19:18:50.169Z,150.10
2023-03-02T19:21:21.380Z,155.43
2023-03-02T19:23:52.018Z,146.90
2023-03-02T19:26:24.355Z,153.70
2023-03-02T19:28:55.127Z,157.80
2023-03-02T19:31:27.801Z,153.25
2023-03-02T19:33:59.234Z,141.15
2023-03-02T19:36:30.316Z,179.95
2023-03-02T19:39:01.032Z,155.63
2023-03-02T19:41:33.726Z,151.82
2023-03-02T19:44:06.173Z,149.32
2023-03-02T19:46:37.270Z,156.57
2023-03-02T19:49:08.435Z,156.82
2023-03-02T19:51:39.811Z,163.63
2023-03-02T19:54:10.601Z,162.82
2023-03-02T19:56:43.801Z,154.35
2023-03-02T19:59:14.801Z,136.13
2023-03-02T20:01:47.942Z,171.82
2023-03-02T20:04:19.291Z,166.98
2023-03-02T20:06:50.383Z,162.98
2023-03-02T20:09:21.618Z,173.75
2023-03-02T20:11:54.163Z,156.07
2023-03-02T20:14:33.485Z,147.57
2023-03-02T20:17:05.728Z,173.57
2023-03-02T20:19:36.509Z,158.00
2023-03-02T20:22:07.783Z,151.57
2023-03-02T20:24:38.615Z,162.68
2023-03-02T20:27:12.980Z,195.88
2023-03-02T20:29:45.406Z,152.90
2023-03-02T20:32:17.531Z,200.85
2023-03-02T20:34:48.856Z,194.70
2023-03-02T20:37:19.959Z,228.70
2023-03-02T20:39:50.715Z,190.88
2023-03-02T20:42:23.451Z,368.08
2023-03-02T20:44:56.496Z,340.85
2023-03-02T20:49:58.957Z,406.73
2023-03-02T20:52:30.407Z,193.40
2023-03-02T20:55:01.888Z,217.70
2023-03-02T20:57:35.334Z,523.72
2023-03-02T21:00:08.643Z,303.40
2023-03-02T21:02:39.822Z,402.20
2023-03-02T21:05:11.296Z,327.85
2023-03-02T21:07:42.425Z,292.95
2023-03-02T21:10:17.923Z,564.10
2023-03-02T21:12:50.551Z,752.13
2023-03-02T21:15:22.894Z,687.95
2023-03-02T21:17:54.723Z,245.57
2023-03-02T21:20:28.336Z,637.45
2023-03-02T21:22:59.657Z,361.17
2023-03-02T21:25:30.643Z,701.30
2023-03-02T21:28:03.368Z,906.15
2023-03-02T21:30:35.808Z,887.75
2023-03-02T21:33:07.354Z,695.72
2023-03-02T21:35:38.765Z,729.47
2023-03-02T21:38:10.367Z,614.58
2023-03-02T21:40:46.065Z,462.70
2023-03-02T21:43:18.583Z,449.58
2023-03-02T21:45:49.598Z,885.92
2023-03-02T21:48:22.970Z,683.10
2023-03-02T21:50:55.254Z,842.70
2023-03-02T21:53:26.380Z,498.70
2023-03-02T21:55:57.236Z,714.38
2023-03-02T21:58:30.870Z,747.22
2023-03-02T22:01:02.816Z,654.55
2023-03-02T22:03:34.601Z,1023.47
2023-03-02T22:06:05.823Z,679.70
2023-03-02T22:08:39.684Z,773.78
2023-03-02T22:11:16.412Z,670.50
2023-03-02T22:13:51.933Z,937.22
2023-03-02T22:16:25.197Z,632.35
2023-03-02T22:18:59.283Z,459.17
2023-03-02T22:24:20.061Z,1025.22
2023-03-02T22:27:00.757Z,666.85
2023-03-02T22:29:41.827Z,550.25
2023-03-02T22:32:19.803Z,547.33
2023-03-02T22:34:54.585Z,518.22
2023-03-02T22:37:27.561Z,904.70
2023-03-02T22:42:33.980Z,775.60
2023-03-02T22:45:15.445Z,460.92
2023-03-02T22:47:51.469Z,600.88
2023-03-02T22:50:26.691Z,662.55
2023-03-02T22:52:59.681Z,390.13
2023-03-02T22:55:39.500Z,346.90
2023-03-02T22:58:46.635Z,547.08
2023-03-02T23:01:26.576Z,407.67
2023-03-02T23:04:11.779Z,686.40
2023-03-02T23:06:47.389Z,419.25
2023-03-02T23:09:22.578Z,788.47
2023-03-02T23:11:58.030Z,665.55
2023-03-02T23:14:31.617Z,726.10
2023-03-02T23:17:14.956Z,975.10
2023-03-02T23:19:45.829Z,224.73
2023-03-02T23:22:18.077Z,352.02
2023-03-02T23:24:49.010Z,658.40
2023-03-02T23:27:20.970Z,814.80
2023-03-02T23:29:51.767Z,459.10
2023-03-02T23:32:25.131Z,620.80
2023-03-02T23:34:56.632Z,641.35
2023-03-02T23:37:28.201Z,315.02
2023-03-02T23:39:58.869Z,313.27
2023-03-02T23:42:30.125Z,622.58
2023-03-02T23:45:01.459Z,428.08
2023-03-02T23:47:33.890Z,573.88
2023-03-02T23:50:06.546Z,550.42
2023-03-02T23:52:37.599Z,289.77
2023-03-02T23:55:10.363Z,616.95
2023-03-02T23:57:41.604Z,370.63
